Time;durP1;ratioP1;P1;durP2;ratioP2;P2;SDS_P1;SDS_P2;PMS_P1;PMS_P2;Temp;Humidity;BMP_temperature;BMP_pressure;BME280_temperature;BME280_humidity;BME280_pressure;Samples;Min_cycle;Max_cycle;Signal;HPM_P1;HPM_P2
2024/01/27 00:01:00;;;;;;;;;;;;;;;1.60;100.00;103421.09;4992033;28;19921;-67
2024/01/27 00:03:25;;;;;;;;;;;;;;;1.57;100.00;103422.84;4995339;28;19957;-68
2024/01/27 00:05:50;;;;;;;;;;;;;;;1.53;100.00;103429.03;4999855;28;20028;-67
2024/01/27 00:08:15;;;;;;;;;;;;;;;1.43;100.00;103441.38;4991408;28;20291;-68
2024/01/27 00:10:41;;;;;;;;;;;;;;;1.37;100.00;103436.94;4998457;28;19936;-68
2024/01/27 00:13:06;;;;;;;;;;;;;;;1.36;100.00;103432.53;4998224;28;19928;-67
2024/01/27 00:15:31;;;;;;;;;;;;;;;1.38;100.00;103429.88;4988361;28;19925;-68
2024/01/27 00:17:56;;;;;;;;;;;;;;;1.39;100.00;103442.22;4991821;28;19917;-68
2024/01/27 00:20:21;;;;;;;;;;;;;;;1.35;100.00;103439.56;4991257;28;19928;-68
2024/01/27 00:22:47;;;;;;;;;;;;;;;1.34;100.00;103437.81;4989830;28;20905;-67
2024/01/27 00:25:12;;;;;;;;;;;;;;;1.28;100.00;103448.41;4987361;28;20338;-67
2024/01/27 00:27:37;;;;;;;;;;;;;;;1.30;100.00;103453.69;4985020;28;22527;-67
2024/01/27 00:30:02;;;;;;;;;;;;;;;1.27;100.00;103454.56;4986987;28;20356;-67
2024/01/27 00:32:28;;;;;;;;;;;;;;;1.27;100.00;103449.28;4987831;28;19933;-67
2024/01/27 00:34:53;;;;;;;;;;;;;;;1.30;100.00;103454.59;4984749;28;19925;-67
2024/01/27 00:37:18;;;;;;;;;;;;;;;1.28;100.00;103447.50;4986856;28;19929;-67
2024/01/27 00:39:45;;;;;;;;;;;;;;;1.26;100.00;103458.09;4985545;28;20319;-67
2024/01/27 00:42:10;;;;;;;;;;;;;;;1.24;100.00;103449.25;4987839;28;19931;-68
2024/01/27 00:44:35;;;;;;;;;;;;;;;1.23;100.00;103444.84;4987816;28;20374;-67
2024/01/27 00:47:00;;;;;;;;;;;;;;;1.23;100.00;103444.84;4987612;28;20446;-67
2024/01/27 00:49:26;;;;;;;;;;;;;;;1.27;100.00;103446.63;4992472;28;20478;-67
2024/01/27 00:51:51;;;;;;;;;;;;;;;1.26;100.00;103446.59;5001214;28;20019;-67
2024/01/27 00:54:16;;;;;;;;;;;;;;;1.32;100.00;103457.22;5000697;28;22399;-68
2024/01/27 00:56:41;;;;;;;;;;;;;;;1.34;100.00;103452.81;5003964;28;19921;-67
2024/01/27 00:59:07;;;;;;;;;;;;;;;1.38;100.00;103453.69;4998775;28;19922;-67
2024/01/27 01:01:32;;;;;;;;;;;;;;;1.37;100.00;103457.22;5000703;28;20364;-67
2024/01/27 01:03:57;;;;;;;;;;;;;;;1.28;100.00;103452.78;4995270;28;19921;-67
2024/01/27 01:06:22;;;;;;;;;;;;;;;1.22;100.00;103466.00;5000821;28;19965;-68
2024/01/27 01:08:48;;;;;;;;;;;;;;;1.20;100.00;103458.94;4995676;28;20008;-67
2024/01/27 01:11:14;;;;;;;;;;;;;;;1.19;100.00;103454.50;5002426;28;19921;-67
2024/01/27 01:13:39;;;;;;;;;;;;;;;1.08;100.00;103465.94;4996701;28;19918;-67
2024/01/27 01:16:05;;;;;;;;;;;;;;;1.00;100.00;103468.56;4997333;28;19922;-68
2024/01/27 01:18:30;;;;;;;;;;;;;;;0.93;100.00;103467.66;4991747;28;19981;-68
2024/01/27 01:20:55;;;;;;;;;;;;;;;0.97;100.00;103466.78;5008181;28;19921;-68
2024/01/27 01:23:21;;;;;;;;;;;;;;;0.93;100.00;103459.72;4998019;28;20368;-68
2024/01/27 01:25:46;;;;;;;;;;;;;;;0.87;100.00;103460.56;4999641;28;20330;-68
2024/01/27 01:28:11;;;;;;;;;;;;;;;0.90;100.00;103462.34;4998399;28;19932;-67
2024/01/27 01:30:36;;;;;;;;;;;;;;;0.91;100.00;103473.81;4980930;28;19921;-67
2024/01/27 01:33:02;;;;;;;;;;;;;;;0.89;100.00;103460.56;4991820;28;19928;-68
2024/01/27 01:35:27;;;;;;;;;;;;;;;0.95;100.00;103465.00;4998294;28;19960;-68
2024/01/27 01:37:52;;;;;;;;;;;;;;;0.82;100.00;103466.69;4998895;28;19921;-68
2024/01/27 01:40:17;;;;;;;;;;;;;;;0.87;100.00;103462.31;4995786;28;19968;-67
2024/01/27 01:42:43;;;;;;;;;;;;;;;0.88;100.00;103461.44;4995686;28;20057;-67
2024/01/27 01:45:09;;;;;;;;;;;;;;;0.85;100.00;103472.00;4996297;28;19936;-67
2024/01/27 01:47:34;;;;;;;;;;;;;;;0.81;100.00;103462.28;4990021;28;19917;-67
2024/01/27 01:49:59;;;;;;;;;;;;;;;0.93;100.00;103472.94;4988790;28;19976;-67
2024/01/27 01:52:24;;;;;;;;;;;;;;;1.03;100.00;103466.81;4994110;28;19956;-67
2024/01/27 01:54:50;;;;;;;;;;;;;;;1.02;100.00;103480.94;4997541;28;19922;-67
2024/01/27 01:57:16;;;;;;;;;;;;;;;1.04;100.00;103470.34;4999489;28;19960;-67
2024/01/27 01:59:41;;;;;;;;;;;;;;;0.99;100.00;103466.78;4994413;28;19926;-67
2024/01/27 02:02:07;;;;;;;;;;;;;;;0.91;100.00;103468.53;4994138;28;19917;-67
2024/01/27 02:04:39;;;;;;;;;;;;;;;0.91;100.00;103465.88;4993692;28;19921;-67
2024/01/27 02:07:04;;;;;;;;;;;;;;;0.91;100.00;103465.88;4994427;28;19967;-67
2024/01/27 02:09:30;;;;;;;;;;;;;;;0.81;100.00;103473.75;4996382;28;20060;-67
2024/01/27 02:11:55;;;;;;;;;;;;;;;0.91;100.00;103472.03;4999786;28;20358;-67
2024/01/27 02:14:25;;;;;;;;;;;;;;;0.89;100.00;103469.41;4992370;28;20016;-67
2024/01/27 02:16:50;;;;;;;;;;;;;;;0.87;100.00;103464.97;4998445;28;20004;-67
2024/01/27 02:19:15;;;;;;;;;;;;;;;0.84;100.00;103462.28;4990357;28;20340;-67
2024/01/27 02:21:40;;;;;;;;;;;;;;;0.75;100.00;103468.44;4998581;28;19921;-67
2024/01/27 02:24:07;;;;;;;;;;;;;;;0.67;100.00;103473.69;4985899;28;19932;-68
2024/01/27 02:26:32;;;;;;;;;;;;;;;0.61;100.00;103463.06;4997516;28;19987;-68
2024/01/27 02:28:57;;;;;;;;;;;;;;;0.56;100.00;103465.69;4994673;28;20001;-67
2024/01/27 02:31:22;;;;;;;;;;;;;;;0.42;100.00;103468.22;4999901;28;19949;-67
2024/01/27 02:33:47;;;;;;;;;;;;;;;0.31;100.00;103477.81;4996464;28;19928;-67
2024/01/27 02:36:13;;;;;;;;;;;;;;;0.28;100.00;103465.47;4993180;28;19964;-67
2024/01/27 02:38:38;;;;;;;;;;;;;;;0.32;100.00;103462.88;5000206;28;20273;-67
2024/01/27 02:41:03;;;;;;;;;;;;;;;0.32;100.00;103479.59;4996175;28;20396;-67
2024/01/27 02:43:28;;;;;;;;;;;;;;;0.33;100.00;103475.22;4979848;28;19922;-67
2024/01/27 02:45:54;;;;;;;;;;;;;;;0.44;100.00;103476.16;4991972;28;19918;-68
2024/01/27 02:48:19;;;;;;;;;;;;;;;0.34;100.00;103477.84;4989160;28;19960;-68
2024/01/27 02:50:44;;;;;;;;;;;;;;;0.24;100.00;103452.25;4991172;28;20020;-67
2024/01/27 02:53:09;;;;;;;;;;;;;;;0.41;100.00;103470.84;4990314;28;19917;-67
2024/01/27 02:55:34;;;;;;;;;;;;;;;0.47;100.00;103470.91;4992211;28;19921;-67
2024/01/27 02:58:00;;;;;;;;;;;;;;;0.51;100.00;103474.47;4991576;28;19922;-67
2024/01/27 03:00:25;;;;;;;;;;;;;;;0.62;100.00;103471.88;4996047;28;20016;-68
2024/01/27 03:02:50;;;;;;;;;;;;;;;0.61;100.00;103470.97;4987916;28;19921;-67
2024/01/27 03:05:15;;;;;;;;;;;;;;;0.61;100.00;103480.69;4996714;28;19925;-68
2024/01/27 03:07:41;;;;;;;;;;;;;;;0.61;100.00;103475.41;4993334;28;19917;-67
2024/01/27 03:10:06;;;;;;;;;;;;;;;0.66;100.00;103468.41;4994608;28;19980;-67
2024/01/27 03:12:32;;;;;;;;;;;;;;;0.57;100.00;103482.41;4993523;28;20769;-67
2024/01/27 03:14:57;;;;;;;;;;;;;;;0.40;100.00;103483.19;4997130;28;19932;-68
2024/01/27 03:17:23;;;;;;;;;;;;;;;0.52;100.00;103460.38;4994698;28;19914;-68
2024/01/27 03:19:48;;;;;;;;;;;;;;;0.39;100.00;103455.00;4993374;28;19976;-67
2024/01/27 03:22:13;;;;;;;;;;;;;;;0.30;100.00;103465.47;4993794;28;20032;-67
2024/01/27 03:24:38;;;;;;;;;;;;;;;0.25;100.00;103456.66;4994172;28;19931;-67
2024/01/27 03:27:04;;;;;;;;;;;;;;;0.21;100.00;103458.38;4993376;28;20309;-67
2024/01/27 03:29:29;;;;;;;;;;;;;;;0.29;100.00;103475.19;4973032;28;20264;-67
2024/01/27 03:31:54;;;;;;;;;;;;;;;0.30;100.00;103460.19;5000491;28;19921;-67
2024/01/27 03:34:24;;;;;;;;;;;;;;;0.38;100.00;103463.78;4996187;28;19921;-67
2024/01/27 03:36:49;;;;;;;;;;;;;;;0.30;100.00;103465.47;4998673;28;19918;-68
2024/01/27 03:39:15;;;;;;;;;;;;;;;0.22;100.00;103476.00;5008712;28;19959;-67
2024/01/27 03:41:40;;;;;;;;;;;;;;;0.22;100.00;103468.06;4994825;28;20043;-67
2024/01/27 03:44:05;;;;;;;;;;;;;;;0.22;100.00;103472.47;4994712;28;19967;-67
2024/01/27 03:46:30;;;;;;;;;;;;;;;0.21;100.00;103476.88;4998692;28;20008;-67
2024/01/27 03:48:56;;;;;;;;;;;;;;;0.22;100.00;103476.00;4991163;28;19952;-67
2024/01/27 03:51:22;;;;;;;;;;;;;;;0.16;100.00;103475.94;4998488;28;19922;-67
2024/01/27 03:53:47;;;;;;;;;;;;;;;0.08;100.00;103477.66;4991976;28;19926;-68
2024/01/27 03:56:12;;;;;;;;;;;;;;;0.07;100.00;103473.25;4995667;28;20379;-67
2024/01/27 03:58:38;;;;;;;;;;;;;;;0.08;100.00;103478.53;4995408;28;19967;-67
2024/01/27 04:01:03;;;;;;;;;;;;;;;0.16;100.00;103483.00;4998909;28;19925;-67
2024/01/27 04:03:29;;;;;;;;;;;;;;;0.16;100.00;103481.22;4995757;28;19921;-67
2024/01/27 04:05:54;;;;;;;;;;;;;;;0.17;100.00;103492.69;4997209;28;19948;-67
2024/01/27 04:08:19;;;;;;;;;;;;;;;0.10;100.00;103486.47;4991886;28;20375;-67
2024/01/27 04:10:44;;;;;;;;;;;;;;;0.07;100.00;103486.44;4997031;28;19921;-67
2024/01/27 04:13:10;;;;;;;;;;;;;;;0.01;100.00;103491.66;4999575;28;19918;-67
2024/01/27 04:15:38;;;;;;;;;;;;;;;-0.02;100.00;103485.50;4993698;28;19922;-68
2024/01/27 04:18:11;;;;;;;;;;;;;;;-0.01;100.00;103495.19;4994835;28;19917;-67
2024/01/27 04:20:36;;;;;;;;;;;;;;;0.03;100.00;103492.56;4996530;28;19921;-67
2024/01/27 04:23:01;;;;;;;;;;;;;;;0.07;100.00;103495.25;4978780;28;20221;-67
2024/01/27 04:25:26;;;;;;;;;;;;;;;0.03;100.00;103496.09;4995085;28;20430;-67
2024/01/27 04:27:52;;;;;;;;;;;;;;;0.08;100.00;103486.44;4999816;28;19926;-67
2024/01/27 04:30:18;;;;;;;;;;;;;;;0.07;100.00;103495.25;4994716;28;19932;-67
2024/01/27 04:32:43;;;;;;;;;;;;;;;0.11;100.00;103496.19;4997769;28;20323;-67
2024/01/27 04:35:09;;;;;;;;;;;;;;;0.11;100.00;103493.53;4995975;28;20379;-67
2024/01/27 04:37:34;;;;;;;;;;;;;;;0.16;100.00;103494.44;4989891;28;20551;-67
2024/01/27 04:39:59;;;;;;;;;;;;;;;0.10;100.00;103486.47;4995082;28;20443;-67
2024/01/27 04:42:24;;;;;;;;;;;;;;;0.08;100.00;103481.16;4979869;28;19918;-67
2024/01/27 04:44:49;;;;;;;;;;;;;;;0.10;100.00;103483.84;4998001;28;19918;-67
2024/01/27 04:47:15;;;;;;;;;;;;;;;-0.01;100.00;103487.25;4997380;28;19973;-68
2024/01/27 04:49:40;;;;;;;;;;;;;;;0.01;100.00;103486.38;4993409;28;20004;-67
2024/01/27 04:52:05;;;;;;;;;;;;;;;0.07;100.00;103486.44;4996575;28;20024;-68
2024/01/27 04:54:31;;;;;;;;;;;;;;;0.04;100.00;103495.22;4994926;28;20439;-67
2024/01/27 04:56:56;;;;;;;;;;;;;;;-0.01;100.00;103492.53;4997257;28;20545;-67
2024/01/27 04:59:21;;;;;;;;;;;;;;;-0.03;100.00;103486.34;4996325;28;20921;-67
2024/01/27 05:01:46;;;;;;;;;;;;;;;-0.08;100.00;103503.03;4997509;28;20458;-67
2024/01/27 05:04:12;;;;;;;;;;;;;;;-0.10;100.00;103499.50;4996795;28;19967;-67
2024/01/27 05:06:38;;;;;;;;;;;;;;;-0.18;100.00;103497.66;4998217;28;19913;-67
2024/01/27 05:09:04;;;;;;;;;;;;;;;-0.29;100.00;103504.59;4993581;28;19929;-67
2024/01/27 05:11:31;;;;;;;;;;;;;;;-0.32;100.00;103492.22;4994600;28;19972;-67
2024/01/27 05:13:56;;;;;;;;;;;;;;;-0.29;100.00;103491.41;4996686;28;19932;-67
2024/01/27 05:16:21;;;;;;;;;;;;;;;-0.25;100.00;103490.53;4998242;28;19918;-67
2024/01/27 05:18:46;;;;;;;;;;;;;;;-0.22;100.00;103480.00;4998133;28;19968;-67
2024/01/27 05:21:12;;;;;;;;;;;;;;;-0.19;100.00;103482.69;4998180;28;20016;-67
2024/01/27 05:23:37;;;;;;;;;;;;;;;-0.23;100.00;103485.28;4996585;28;20311;-68
2024/01/27 05:26:04;;;;;;;;;;;;;;;-0.29;100.00;103490.50;4999924;28;20412;-67
2024/01/27 05:28:30;;;;;;;;;;;;;;;-0.35;100.00;103486.91;4997670;28;19921;-67
2024/01/27 05:30:55;;;;;;;;;;;;;;;-0.32;100.00;103484.31;4977160;28;20522;-67
2024/01/27 05:33:20;;;;;;;;;;;;;;;-0.31;100.00;103478.16;4992847;28;20391;-67
2024/01/27 05:35:45;;;;;;;;;;;;;;;-0.34;100.00;103480.75;4993638;28;20425;-67
2024/01/27 05:38:11;;;;;;;;;;;;;;;-0.41;100.00;103478.06;5006321;28;20395;-68
2024/01/27 05:40:36;;;;;;;;;;;;;;;-0.42;100.00;103473.63;4976082;28;20219;-67
2024/01/27 05:43:02;;;;;;;;;;;;;;;-0.43;100.00;103469.22;4975971;28;19964;-67
2024/01/27 05:45:28;;;;;;;;;;;;;;;-0.52;100.00;103470.88;4994889;28;19922;-67
2024/01/27 05:47:54;;;;;;;;;;;;;;;-0.49;100.00;103462.13;4989272;28;19925;-67
2024/01/27 05:50:19;;;;;;;;;;;;;;;-0.38;100.00;103462.25;4994791;28;19956;-67
2024/01/27 05:52:44;;;;;;;;;;;;;;;-0.28;100.00;103461.47;4989759;28;19956;-67
2024/01/27 05:55:11;;;;;;;;;;;;;;;-0.30;100.00;103468.50;4990788;28;20019;-67
2024/01/27 05:57:36;;;;;;;;;;;;;;;-0.35;100.00;103467.56;4996194;28;19921;-67
2024/01/27 06:00:01;;;;;;;;;;;;;;;-0.28;100.00;103471.16;4978532;28;19923;-67
2024/01/27 06:02:27;;;;;;;;;;;;;;;-0.29;100.00;103469.38;4988603;28;19925;-67
2024/01/27 06:04:52;;;;;;;;;;;;;;;-0.35;100.00;103463.16;4979743;28;20152;-67
2024/01/27 06:07:17;;;;;;;;;;;;;;;-0.36;100.00;103477.22;4989776;28;19929;-67
2024/01/27 06:09:42;;;;;;;;;;;;;;;-0.37;100.00;103477.22;4989801;28;19968;-68
2024/01/27 06:12:08;;;;;;;;;;;;;;;-0.40;100.00;103470.16;4994486;28;19925;-67
2024/01/27 06:14:33;;;;;;;;;;;;;;;-0.50;100.00;103478.84;4968794;28;19965;-67
2024/01/27 06:16:58;;;;;;;;;;;;;;;-0.43;100.00;103477.16;4991218;28;20288;-67
2024/01/27 06:19:23;;;;;;;;;;;;;;;-0.44;100.00;103476.28;4994997;28;20387;-68
2024/01/27 06:21:48;;;;;;;;;;;;;;;-0.29;100.00;103466.72;5008454;28;20386;-68
2024/01/27 06:24:14;;;;;;;;;;;;;;;-0.33;100.00;103471.97;4988940;28;19923;-67
2024/01/27 06:26:39;;;;;;;;;;;;;;;-0.38;100.00;103484.25;4991594;28;19925;-67
2024/01/27 06:29:04;;;;;;;;;;;;;;;-0.28;100.00;103487.00;4999507;28;19932;-68
2024/01/27 06:31:29;;;;;;;;;;;;;;;-0.29;100.00;103499.31;4986498;28;19932;-67
2024/01/27 06:33:54;;;;;;;;;;;;;;;-0.47;100.00;103492.06;5000882;28;19922;-67
2024/01/27 06:36:22;;;;;;;;;;;;;;;-0.29;100.00;103496.69;4974177;28;20336;-67
2024/01/27 06:38:48;;;;;;;;;;;;;;;-0.34;100.00;103493.97;4967812;28;20568;-68
2024/01/27 06:41:13;;;;;;;;;;;;;;;-0.34;100.00;103478.13;4973866;28;19921;-67
2024/01/27 06:43:38;;;;;;;;;;;;;;;-0.49;100.00;103489.41;4986787;28;19944;-68
2024/01/27 06:46:03;;;;;;;;;;;;;;;-0.54;100.00;103477.03;4999449;28;20346;-67
2024/01/27 06:48:28;;;;;;;;;;;;;;;-0.61;100.00;103484.00;4982117;28;20382;-67
2024/01/27 06:50:54;;;;;;;;;;;;;;;-0.47;100.00;103481.53;4992435;28;19932;-67
2024/01/27 06:53:20;;;;;;;;;;;;;;;-0.51;100.00;103485.00;4987248;28;19953;-67
2024/01/27 06:55:45;;;;;;;;;;;;;;;-0.55;100.00;103484.06;4992207;28;19972;-67
2024/01/27 06:58:10;;;;;;;;;;;;;;;-0.45;100.00;103477.16;4988711;28;20387;-67
2024/01/27 07:00:35;;;;;;;;;;;;;;;-0.44;100.00;103488.56;4988520;28;20007;-67
2024/01/27 07:03:01;;;;;;;;;;;;;;;-0.54;100.00;103495.50;4992210;28;20056;-67
2024/01/27 07:05:26;;;;;;;;;;;;;;;-0.64;100.00;103500.66;4988054;28;20186;-67
2024/01/27 07:07:51;;;;;;;;;;;;;;;-0.59;100.00;103505.13;4987701;28;19921;-67
2024/01/27 07:10:16;;;;;;;;;;;;;;;-0.61;100.00;103513.03;4978817;28;19930;-67
2024/01/27 07:12:41;;;;;;;;;;;;;;;-0.60;100.00;103512.16;4988564;28;19956;-67
2024/01/27 07:15:07;;;;;;;;;;;;;;;-0.56;100.00;103528.91;4989351;28;19974;-67
2024/01/27 07:17:32;;;;;;;;;;;;;;;-0.46;100.00;103526.41;4985756;28;19944;-67
2024/01/27 07:19:57;;;;;;;;;;;;;;;-0.63;100.00;103527.94;4990269;28;19953;-67
2024/01/27 07:22:23;;;;;;;;;;;;;;;-0.65;100.00;103527.91;4989742;28;19925;-67
2024/01/27 07:24:51;;;;;;;;;;;;;;;-0.68;100.00;103534.91;4992485;28;20256;-67
2024/01/27 07:27:16;;;;;;;;;;;;;;;-0.68;100.00;103537.56;5001681;28;19930;-67
2024/01/27 07:29:41;;;;;;;;;;;;;;;-0.61;100.00;103526.22;4983464;28;19968;-67
2024/01/27 07:32:08;;;;;;;;;;;;;;;-0.63;100.00;103535.88;4982237;28;19953;-67
2024/01/27 07:34:34;;;;;;;;;;;;;;;-0.64;100.00;103537.59;4981234;28;20143;-67
2024/01/27 07:36:59;;;;;;;;;;;;;;;-0.63;100.00;103542.03;4983166;28;19921;-67
2024/01/27 07:39:24;;;;;;;;;;;;;;;-0.59;100.00;103529.78;4995560;28;19967;-68
2024/01/27 07:41:49;;;;;;;;;;;;;;;-0.61;100.00;103536.78;5000142;28;19943;-67
2024/01/27 07:44:15;;;;;;;;;;;;;;;-0.52;100.00;103542.16;4997122;28;20451;-67
2024/01/27 07:46:40;;;;;;;;;;;;;;;-0.37;100.00;103551.13;4986931;28;20379;-67
2024/01/27 07:49:06;;;;;;;;;;;;;;;-0.37;100.00;103553.78;5003007;28;19918;-67
2024/01/27 07:51:31;;;;;;;;;;;;;;;-0.27;100.00;103549.50;4989865;28;20459;-68
2024/01/27 07:53:56;;;;;;;;;;;;;;;-0.10;100.00;103547.91;4986542;28;19926;-68
2024/01/27 07:56:22;;;;;;;;;;;;;;;0.06;100.00;103550.72;4999848;28;19929;-68
2024/01/27 07:58:47;;;;;;;;;;;;;;;0.18;100.00;103553.47;5003639;28;19918;-68
2024/01/27 08:01:16;;;;;;;;;;;;;;;0.25;100.00;103552.66;5003518;28;19921;-68
2024/01/27 08:03:41;;;;;;;;;;;;;;;0.20;100.00;103556.16;4975027;28;20304;-68
2024/01/27 08:06:09;;;;;;;;;;;;;;;0.28;100.00;103560.63;4982078;28;19922;-68
2024/01/27 08:08:34;;;;;;;;;;;;;;;0.40;100.00;103561.59;4991242;28;19965;-68
2024/01/27 08:10:59;;;;;;;;;;;;;;;0.48;100.00;103564.31;4987034;28;20020;-68
2024/01/27 08:13:24;;;;;;;;;;;;;;;0.49;100.00;103552.88;4997632;28;19918;-67
2024/01/27 08:15:50;;;;;;;;;;;;;;;0.65;100.00;103553.88;4998364;28;19917;-68
2024/01/27 08:18:15;;;;;;;;;;;;;;;0.71;100.00;103564.50;5005836;28;19921;-68
2024/01/27 08:20:40;;;;;;;;;;;;;;;0.70;100.00;103568.91;5003015;28;19952;-67
2024/01/27 08:23:05;;;;;;;;;;;;;;;0.62;100.00;103560.00;5007810;28;20013;-68
2024/01/27 08:25:31;;;;;;;;;;;;;;;0.68;100.00;103564.47;4985920;28;19921;-68
2024/01/27 08:27:56;;;;;;;;;;;;;;;0.62;100.00;103557.38;4996317;28;19933;-69
2024/01/27 08:30:21;;;;;;;;;;;;;;;0.72;100.00;103559.22;4995279;28;19932;-68
2024/01/27 08:32:46;;;;;;;;;;;;;;;0.78;100.00;103568.09;4997184;28;19929;-68
2024/01/27 08:35:11;;;;;;;;;;;;;;;0.90;100.00;103570.81;4995169;28;19996;-68
2024/01/27 08:37:38;;;;;;;;;;;;;;;1.01;100.00;103561.19;4996792;28;20064;-68
2024/01/27 08:40:04;;;;;;;;;;;;;;;1.17;100.00;103566.56;4991469;28;20538;-68
2024/01/27 08:42:30;;;;;;;;;;;;;;;1.33;100.00;103578.97;4993690;28;20378;-68
2024/01/27 08:44:55;;;;;;;;;;;;;;;1.44;100.00;103576.41;4996385;28;19944;-68
2024/01/27 08:47:21;;;;;;;;;;;;;;;1.53;100.00;103564.97;4998706;28;19963;-68
2024/01/27 08:49:46;;;;;;;;;;;;;;;1.84;100.00;103554.50;4991461;28;19926;-68
2024/01/27 08:52:12;;;;;;;;;;;;;;;1.94;100.00;103550.09;4990121;28;20261;-68
2024/01/27 08:54:37;;;;;;;;;;;;;;;2.02;100.00;103558.06;4990626;28;19921;-68
2024/01/27 08:57:02;;;;;;;;;;;;;;;2.20;100.00;103551.91;5005810;28;19922;-68
2024/01/27 08:59:27;;;;;;;;;;;;;;;2.25;100.00;103560.75;4995770;28;19922;-68
2024/01/27 09:01:53;;;;;;;;;;;;;;;2.27;100.00;103543.03;4995836;28;19929;-68
2024/01/27 09:04:18;;;;;;;;;;;;;;;2.20;100.00;103546.59;4997080;28;19921;-68
2024/01/27 09:06:43;;;;;;;;;;;;;;;2.37;100.00;103552.78;4995719;28;20259;-68
2024/01/27 09:09:08;;;;;;;;;;;;;;;2.06;100.00;103571.28;4994779;28;19924;-67
2024/01/27 09:11:34;;;;;;;;;;;;;;;1.92;100.00;103568.63;4998425;28;19935;-68
2024/01/27 09:13:59;;;;;;;;;;;;;;;2.21;100.00;103574.88;4991001;28;19929;-68
2024/01/27 09:16:25;;;;;;;;;;;;;;;2.37;100.00;103576.66;4996883;28;20395;-68
2024/01/27 09:18:50;;;;;;;;;;;;;;;2.52;100.00;103581.06;4995503;28;20414;-68
2024/01/27 09:21:20;;;;;;;;;;;;;;;2.48;100.00;103578.44;4983523;28;19922;-68
2024/01/27 09:23:45;;;;;;;;;;;;;;;2.64;100.00;103579.31;4978748;28;19932;-68
2024/01/27 09:26:10;;;;;;;;;;;;;;;2.64;100.00;103590.81;4980120;28;19921;-68
2024/01/27 09:28:37;;;;;;;;;;;;;;;2.68;100.00;103584.63;4987607;28;19925;-68
2024/01/27 09:31:02;;;;;;;;;;;;;;;2.79;100.00;103581.94;4996029;28;19926;-68
2024/01/27 09:33:27;;;;;;;;;;;;;;;2.97;100.00;103589.00;4986206;28;19921;-68
2024/01/27 09:35:53;;;;;;;;;;;;;;;2.95;100.00;103581.91;4992185;28;19929;-68
2024/01/27 09:38:18;;;;;;;;;;;;;;;3.06;100.00;103592.50;5001947;28;19929;-69
2024/01/27 09:40:43;;;;;;;;;;;;;;;3.08;100.00;103591.66;4989456;28;19922;-69
2024/01/27 09:43:09;;;;;;;;;;;;;;;3.31;100.00;103598.66;4988734;28;19927;-69
2024/01/27 09:45:35;;;;;;;;;;;;;;;3.83;100.00;103605.56;4982975;28;19941;-68
2024/01/27 09:48:00;;;;;;;;;;;;;;;4.34;100.00;103604.38;5023255;23;19956;-68
2024/01/27 09:50:25;;;;;;;;;;;;;;;4.77;100.00;103605.78;4998211;28;20937;-68
2024/01/27 09:52:51;;;;;;;;;;;;;;;4.80;100.00;103609.31;4994679;28;19964;-69
2024/01/27 09:55:16;;;;;;;;;;;;;;;5.29;100.00;103612.38;4997601;28;19925;-68
2024/01/27 09:57:41;;;;;;;;;;;;;;;5.63;100.00;103620.00;4994868;28;19925;-69
2024/01/27 10:00:09;;;;;;;;;;;;;;;5.43;100.00;103616.69;4991105;28;19921;-69
2024/01/27 10:02:34;;;;;;;;;;;;;;;5.50;100.00;103618.34;5005752;28;20259;-68
2024/01/27 10:04:59;;;;;;;;;;;;;;;5.73;100.00;103617.19;4998307;28;19928;-69
2024/01/27 10:07:25;;;;;;;;;;;;;;;5.75;100.00;103616.28;4994931;28;19917;-68
2024/01/27 10:09:50;;;;;;;;;;;;;;;6.04;100.00;103608.81;4997544;28;19929;-68
2024/01/27 10:12:15;;;;;;;;;;;;;;;6.46;100.00;103609.09;4995201;28;20024;-69
2024/01/27 10:14:41;;;;;;;;;;;;;;;6.98;100.00;103595.75;5002891;28;20342;-69
2024/01/27 10:17:09;;;;;;;;;;;;;;;7.09;100.00;103604.41;4996954;28;20367;-68
2024/01/27 10:19:34;;;;;;;;;;;;;;;7.42;100.00;103606.47;4995445;28;19917;-68
2024/01/27 10:21:59;;;;;;;;;;;;;;;7.35;100.00;103603.03;5000517;28;19956;-69
2024/01/27 10:24:25;;;;;;;;;;;;;;;7.06;100.00;103601.81;5005160;28;19971;-69
2024/01/27 10:26:50;;;;;;;;;;;;;;;7.33;100.00;103604.84;4992562;28;19967;-69
2024/01/27 10:29:15;;;;;;;;;;;;;;;7.44;100.00;103567.22;4996449;28;20008;-69
2024/01/27 10:31:40;;;;;;;;;;;;;;;8.08;100.00;103602.38;4996410;28;19923;-69
2024/01/27 10:34:09;;;;;;;;;;;;;;;7.97;100.00;103607.09;4997211;28;19918;-69
2024/01/27 10:36:44;;;;;;;;;;;;;;;8.18;100.00;103599.50;4997605;28;19917;-69
2024/01/27 10:39:16;;;;;;;;;;;;;;;8.30;100.00;103604.56;4995026;28;19967;-69
2024/01/27 10:41:41;;;;;;;;;;;;;;;8.53;100.00;103604.00;4995837;28;20376;-70
2024/01/27 10:44:07;;;;;;;;;;;;;;;8.73;100.00;103604.44;4996125;28;19928;-69
2024/01/27 10:46:32;;;;;;;;;;;;;;;9.13;100.00;103617.66;4995485;28;19932;-69
2024/01/27 10:48:57;;;;;;;;;;;;;;;9.42;100.00;103607.03;5017863;28;19967;-69
2024/01/27 10:51:25;;;;;;;;;;;;;;;9.37;100.00;103598.25;4997394;28;20323;-69
2024/01/27 10:53:51;;;;;;;;;;;;;;;9.76;100.00;103600.69;4993351;28;19917;-69
2024/01/27 10:56:16;;;;;;;;;;;;;;;10.49;100.00;103593.91;4967330;28;19944;-69
2024/01/27 10:58:41;;;;;;;;;;;;;;;10.81;100.00;103585.72;4996510;28;19956;-69
2024/01/27 11:01:11;;;;;;;;;;;;;;;10.99;100.00;103577.91;5001119;28;19991;-69
2024/01/27 11:03:37;;;;;;;;;;;;;;;11.49;100.00;103577.00;4994649;28;19922;-69
2024/01/27 11:06:02;;;;;;;;;;;;;;;11.42;100.00;103562.00;4990199;28;20364;-69
2024/01/27 11:08:29;;;;;;;;;;;;;;;11.61;100.00;103568.44;4995396;28;19922;-69
2024/01/27 11:10:54;;;;;;;;;;;;;;;11.70;100.00;103567.19;4992456;28;19999;-69
2024/01/27 11:13:19;;;;;;;;;;;;;;;12.33;100.00;103562.91;4980031;28;20427;-69
2024/01/27 11:15:52;;;;;;;;;;;;;;;12.55;100.00;103554.81;4996258;28;20411;-69
2024/01/27 11:18:17;;;;;;;;;;;;;;;12.89;99.79;103559.59;5005671;28;19921;-69
2024/01/27 11:20:44;;;;;;;;;;;;;;;13.26;96.01;103554.34;5011294;28;20327;-69
2024/01/27 11:23:10;;;;;;;;;;;;;;;13.64;94.87;103557.13;4996430;28;19921;-69
2024/01/27 11:25:35;;;;;;;;;;;;;;;12.35;93.17;103545.75;4996915;28;19944;-71
2024/01/27 11:28:10;;;;;;;;;;;;;;;12.22;95.38;103544.50;5004072;28;19972;-70
2024/01/27 11:30:39;;;;;;;;;;;;;;;12.12;93.93;103541.31;5005963;28;19925;-71
2024/01/27 11:33:04;;;;;;;;;;;;;;;11.87;95.65;103547.69;4996270;28;20012;-70
2024/01/27 11:35:30;;;;;;;;;;;;;;;11.87;94.39;103552.19;4989716;28;19963;-71
2024/01/27 11:37:55;;;;;;;;;;;;;;;12.26;95.25;103547.03;4993874;28;20055;-71
2024/01/27 11:40:21;;;;;;;;;;;;;;;12.26;93.66;103551.53;5012951;28;20019;-71
2024/01/27 11:42:56;;;;;;;;;;;;;;;12.60;92.87;103540.19;5007451;28;20384;-70
2024/01/27 11:45:21;;;;;;;;;;;;;;;12.54;91.94;103542.28;5005464;28;20170;-70
2024/01/27 11:47:47;;;;;;;;;;;;;;;12.98;91.93;103535.88;5001556;28;19933;-70
2024/01/27 11:50:12;;;;;;;;;;;;;;;12.14;90.71;103534.06;4985745;28;19922;-70
2024/01/27 11:52:37;;;;;;;;;;;;;;;12.70;93.73;103529.91;4997763;28;20368;-70
2024/01/27 11:55:03;;;;;;;;;;;;;;;12.06;90.73;103529.00;5012842;28;19921;-71
2024/01/27 11:57:28;;;;;;;;;;;;;;;11.62;92.17;103531.66;4995958;28;19921;-71
2024/01/27 11:59:53;;;;;;;;;;;;;;;12.27;92.76;103524.53;5004346;28;19992;-71
2024/01/27 12:02:19;;;;;;;;;;;;;;;12.53;90.58;103525.25;5011227;28;20318;-70
2024/01/27 12:04:44;;;;;;;;;;;;;;;11.69;93.18;103530.44;4990475;28;19917;-71
2024/01/27 12:07:09;;;;;;;;;;;;;;;12.04;93.96;103527.31;5011784;28;19999;-70
2024/01/27 12:09:35;;;;;;;;;;;;;;;11.82;91.10;103525.44;4998108;28;19925;-71
2024/01/27 12:12:01;;;;;;;;;;;;;;;11.50;94.16;103528.50;4998137;28;19928;-71
2024/01/27 12:14:36;;;;;;;;;;;;;;;11.63;94.05;103536.97;4991452;28;20280;-71
2024/01/27 12:17:02;;;;;;;;;;;;;;;12.10;92.40;103532.44;5000831;28;19921;-70
2024/01/27 12:19:27;;;;;;;;;;;;;;;13.12;91.60;103533.41;4999602;28;19917;-71
2024/01/27 12:21:52;;;;;;;;;;;;;;;13.08;88.79;103509.34;4998369;28;19921;-70
2024/01/27 12:24:20;;;;;;;;;;;;;;;13.18;88.45;103527.75;5015224;28;19995;-70